N883V KMEM-KNEW
Flight info
| Callsign | N883V |
|---|---|
| Flight time | 0h 44m |
| Altitude | 38000 |
| Route | PIEPE6 IBUFY MCB TRSSH1 |
| Aircraft | B737/M-SDE2E3FGHIRWXY/LB1 |
Departure
| Time | 2026-05-05 01:26 |
|---|---|
| Airport | Memphis International Airport (KMEM) |
Arrival
| Time | 2026-05-05 02:11 |
|---|---|
| Airport | Lakefront Airport (KNEW) |
| Time | Latitude | Longitude | Altitude | Speed | Heading |
|---|---|---|---|---|---|
| 2026-05-05 01:14 | 35.05536 | -89.96805 | 330 ft | 0 kts | 211° |
| 2026-05-05 01:22 | 35.05533 | -89.96809 | 326 ft | 2 kts | 224° |
| 2026-05-05 01:23 | 35.05522 | -89.96835 | 327 ft | 5 kts | 249° |
| 2026-05-05 01:23 | 35.05520 | -89.96874 | 326 ft | 5 kts | 270° |
| 2026-05-05 01:23 | 35.05523 | -89.96916 | 326 ft | 6 kts | 276° |
| 2026-05-05 01:23 | 35.05552 | -89.96965 | 330 ft | 10 kts | 356° |
| 2026-05-05 01:24 | 35.05642 | -89.96973 | 328 ft | 16 kts | 321° |
| 2026-05-05 01:24 | 35.05657 | -89.97121 | 328 ft | 19 kts | 271° |
| 2026-05-05 01:24 | 35.05619 | -89.97270 | 328 ft | 19 kts | 236° |
| 2026-05-05 01:24 | 35.05581 | -89.97337 | 329 ft | 7 kts | 235° |
| 2026-05-05 01:25 | 35.05547 | -89.97396 | 327 ft | 10 kts | 235° |
| 2026-05-05 01:25 | 35.05499 | -89.97478 | 327 ft | 14 kts | 234° |
| 2026-05-05 01:25 | 35.05413 | -89.97601 | 323 ft | 24 kts | 206° |
| 2026-05-05 01:25 | 35.05098 | -89.97611 | 321 ft | 81 kts | 179° |
| 2026-05-05 01:26 | 35.04308 | -89.97592 | 323 ft | 143 kts | 178° |
| 2026-05-05 01:26 | 35.03217 | -89.97559 | 791 ft | 161 kts | 180° |
| 2026-05-05 01:26 | 35.02114 | -89.97526 | 1780 ft | 150 kts | 181° |
| 2026-05-05 01:26 | 35.00970 | -89.97508 | 2291 ft | 182 kts | 181° |
| 2026-05-05 01:27 | 34.99599 | -89.97493 | 2583 ft | 212 kts | 182° |
| 2026-05-05 01:27 | 34.98006 | -89.97473 | 3023 ft | 238 kts | 181° |
| 2026-05-05 01:27 | 34.96350 | -89.97434 | 3991 ft | 243 kts | 182° |
| 2026-05-05 01:27 | 34.94646 | -89.97395 | 4896 ft | 248 kts | 182° |
| 2026-05-05 01:28 | 34.92887 | -89.97355 | 5707 ft | 259 kts | 182° |
| 2026-05-05 01:28 | 34.91036 | -89.97319 | 6510 ft | 270 kts | 182° |
| 2026-05-05 01:28 | 34.89155 | -89.97280 | 7580 ft | 271 kts | 182° |
| 2026-05-05 01:28 | 34.87240 | -89.97268 | 8545 ft | 278 kts | 186° |
| 2026-05-05 01:29 | 34.85298 | -89.97423 | 9599 ft | 281 kts | 188° |
| 2026-05-05 01:29 | 34.83326 | -89.97641 | 10488 ft | 290 kts | 189° |
| 2026-05-05 01:29 | 34.81226 | -89.97877 | 10834 ft | 318 kts | 189° |
| 2026-05-05 01:29 | 34.78916 | -89.98135 | 11042 ft | 347 kts | 188° |
| 2026-05-05 01:30 | 34.76461 | -89.98388 | 11633 ft | 359 kts | 188° |
| 2026-05-05 01:30 | 34.73937 | -89.98637 | 12413 ft | 367 kts | 188° |
| 2026-05-05 01:30 | 34.71375 | -89.98892 | 13214 ft | 373 kts | 188° |
| 2026-05-05 01:30 | 34.68806 | -89.99367 | 13958 ft | 376 kts | 199° |
| 2026-05-05 01:31 | 34.66372 | -90.00395 | 14819 ft | 376 kts | 204° |
| 2026-05-05 01:31 | 34.63913 | -90.01542 | 15599 ft | 382 kts | 205° |
| 2026-05-05 01:31 | 34.61403 | -90.02718 | 16378 ft | 388 kts | 205° |
| 2026-05-05 01:31 | 34.58858 | -90.03892 | 17202 ft | 393 kts | 204° |
| 2026-05-05 01:32 | 34.56278 | -90.05055 | 18001 ft | 398 kts | 204° |
| 2026-05-05 01:32 | 34.53651 | -90.06225 | 18703 ft | 404 kts | 204° |
| 2026-05-05 01:32 | 34.51000 | -90.07399 | 19457 ft | 407 kts | 204° |
| 2026-05-05 01:32 | 34.48334 | -90.08576 | 20192 ft | 410 kts | 205° |
| 2026-05-05 01:33 | 34.45585 | -90.09609 | 20874 ft | 419 kts | 195° |
| 2026-05-05 01:33 | 34.42650 | -90.10006 | 21564 ft | 427 kts | 189° |
| 2026-05-05 01:33 | 34.39719 | -90.10303 | 22217 ft | 430 kts | 190° |
| 2026-05-05 01:33 | 34.36724 | -90.10662 | 22875 ft | 433 kts | 191° |
| 2026-05-05 01:34 | 34.33710 | -90.11059 | 23531 ft | 437 kts | 192° |
| 2026-05-05 01:34 | 34.30682 | -90.11473 | 24033 ft | 441 kts | 192° |
| 2026-05-05 01:34 | 34.27611 | -90.11897 | 24491 ft | 446 kts | 192° |
| 2026-05-05 01:34 | 34.24502 | -90.12325 | 24928 ft | 451 kts | 193° |
| 2026-05-05 01:35 | 34.21363 | -90.12752 | 25379 ft | 456 kts | 193° |
| 2026-05-05 01:35 | 34.18189 | -90.13180 | 25831 ft | 461 kts | 193° |
| 2026-05-05 01:35 | 34.14991 | -90.13610 | 26267 ft | 465 kts | 194° |
| 2026-05-05 01:35 | 34.11756 | -90.14046 | 26687 ft | 469 kts | 194° |
| 2026-05-05 01:36 | 34.08497 | -90.14472 | 27098 ft | 474 kts | 193° |
| 2026-05-05 01:36 | 34.05179 | -90.14747 | 27497 ft | 481 kts | 191° |
| 2026-05-05 01:36 | 34.01818 | -90.14901 | 27885 ft | 487 kts | 189° |
| 2026-05-05 01:36 | 33.98416 | -90.15003 | 28254 ft | 491 kts | 189° |
| 2026-05-05 01:37 | 33.95033 | -90.15092 | 28613 ft | 495 kts | 190° |
| 2026-05-05 01:37 | 33.91572 | -90.15193 | 28969 ft | 498 kts | 190° |
| 2026-05-05 01:37 | 33.88097 | -90.15309 | 29325 ft | 501 kts | 191° |
| 2026-05-05 01:37 | 33.84591 | -90.15440 | 29666 ft | 504 kts | 191° |
| 2026-05-05 01:38 | 33.81074 | -90.15581 | 30036 ft | 507 kts | 191° |
| 2026-05-05 01:38 | 33.77547 | -90.15726 | 30419 ft | 507 kts | 191° |
| 2026-05-05 01:38 | 33.74021 | -90.15873 | 30819 ft | 507 kts | 192° |
| 2026-05-05 01:38 | 33.70494 | -90.16022 | 31169 ft | 508 kts | 192° |
| 2026-05-05 01:39 | 33.66956 | -90.16172 | 31478 ft | 510 kts | 192° |
| 2026-05-05 01:39 | 33.63448 | -90.16321 | 31792 ft | 511 kts | 192° |
| 2026-05-05 01:39 | 33.59887 | -90.16471 | 32130 ft | 512 kts | 193° |
| 2026-05-05 01:39 | 33.56318 | -90.16620 | 32435 ft | 514 kts | 193° |
| 2026-05-05 01:40 | 33.52739 | -90.16770 | 32725 ft | 516 kts | 193° |
| 2026-05-05 01:40 | 33.49144 | -90.16920 | 33013 ft | 517 kts | 193° |
| 2026-05-05 01:40 | 33.45534 | -90.17071 | 33308 ft | 519 kts | 193° |
| 2026-05-05 01:40 | 33.41921 | -90.17221 | 33600 ft | 520 kts | 194° |
| 2026-05-05 01:41 | 33.38295 | -90.17372 | 33864 ft | 522 kts | 194° |
| 2026-05-05 01:41 | 33.34656 | -90.17523 | 34122 ft | 524 kts | 194° |
| 2026-05-05 01:41 | 33.31009 | -90.17672 | 34449 ft | 523 kts | 194° |
| 2026-05-05 01:41 | 33.27401 | -90.17817 | 34820 ft | 520 kts | 194° |
| 2026-05-05 01:42 | 33.23771 | -90.17963 | 35164 ft | 519 kts | 194° |
| 2026-05-05 01:42 | 33.20156 | -90.18111 | 35456 ft | 519 kts | 194° |
| 2026-05-05 01:42 | 33.16552 | -90.18260 | 35744 ft | 518 kts | 194° |
| 2026-05-05 01:42 | 33.12996 | -90.18407 | 36060 ft | 517 kts | 194° |
| 2026-05-05 01:43 | 33.09414 | -90.18554 | 36402 ft | 515 kts | 194° |
| 2026-05-05 01:43 | 33.05823 | -90.18702 | 36724 ft | 514 kts | 194° |
| 2026-05-05 01:43 | 33.02259 | -90.18849 | 37000 ft | 513 kts | 194° |
| 2026-05-05 01:43 | 32.98687 | -90.18997 | 37293 ft | 512 kts | 194° |
| 2026-05-05 01:44 | 32.95131 | -90.19143 | 37621 ft | 510 kts | 194° |
| 2026-05-05 01:44 | 32.91583 | -90.19288 | 37945 ft | 508 kts | 194° |
| 2026-05-05 01:44 | 32.88061 | -90.19432 | 38255 ft | 507 kts | 194° |
| 2026-05-05 01:44 | 32.84546 | -90.19576 | 38544 ft | 506 kts | 194° |
| 2026-05-05 01:45 | 32.81023 | -90.19721 | 38799 ft | 504 kts | 194° |
| 2026-05-05 01:45 | 32.77530 | -90.19864 | 39031 ft | 503 kts | 194° |
| 2026-05-05 01:45 | 32.74026 | -90.20008 | 39236 ft | 502 kts | 194° |
| 2026-05-05 01:45 | 32.70523 | -90.20152 | 39456 ft | 501 kts | 194° |
| 2026-05-05 01:46 | 32.67039 | -90.20296 | 39667 ft | 500 kts | 194° |
| 2026-05-05 01:46 | 32.63601 | -90.20436 | 39885 ft | 499 kts | 194° |
| 2026-05-05 01:46 | 32.56977 | -90.20711 | 39949 ft | 503 kts | 194° |
| 2026-05-05 01:47 | 32.50018 | -90.20989 | 39951 ft | 499 kts | 194° |
| 2026-05-05 01:47 | 32.43090 | -90.21266 | 39952 ft | 495 kts | 194° |
| 2026-05-05 01:48 | 32.36241 | -90.21543 | 39964 ft | 491 kts | 194° |
| 2026-05-05 01:48 | 32.29398 | -90.21827 | 39572 ft | 496 kts | 194° |
| 2026-05-05 01:49 | 32.25929 | -90.21974 | 39019 ft | 496 kts | 194° |
| 2026-05-05 01:49 | 32.22498 | -90.22113 | 38385 ft | 496 kts | 194° |
| 2026-05-05 01:49 | 32.19027 | -90.22253 | 37654 ft | 497 kts | 194° |
| 2026-05-05 01:49 | 32.15573 | -90.22390 | 37040 ft | 495 kts | 194° |
| 2026-05-05 01:50 | 32.12162 | -90.22520 | 36818 ft | 489 kts | 194° |
| 2026-05-05 01:50 | 32.08736 | -90.22660 | 36264 ft | 493 kts | 194° |
| 2026-05-05 01:50 | 32.05352 | -90.22802 | 35577 ft | 495 kts | 194° |
| 2026-05-05 01:50 | 32.01885 | -90.22946 | 34807 ft | 498 kts | 194° |
| 2026-05-05 01:51 | 31.98403 | -90.23090 | 33975 ft | 503 kts | 194° |
| 2026-05-05 01:51 | 31.94890 | -90.23235 | 33014 ft | 508 kts | 193° |
| 2026-05-05 01:51 | 31.91333 | -90.23377 | 32111 ft | 511 kts | 193° |
| 2026-05-05 01:51 | 31.87763 | -90.23517 | 31104 ft | 515 kts | 192° |
| 2026-05-05 01:52 | 31.84212 | -90.23658 | 30100 ft | 519 kts | 191° |
| 2026-05-05 01:52 | 31.80608 | -90.23801 | 29269 ft | 515 kts | 191° |
| 2026-05-05 01:52 | 31.77014 | -90.23940 | 29105 ft | 517 kts | 191° |
| 2026-05-05 01:52 | 31.73422 | -90.24084 | 28995 ft | 515 kts | 191° |
| 2026-05-05 01:53 | 31.66313 | -90.24365 | 28986 ft | 511 kts | 191° |
| 2026-05-05 01:53 | 31.59173 | -90.24656 | 28980 ft | 513 kts | 191° |
| 2026-05-05 01:54 | 31.52021 | -90.24942 | 28983 ft | 514 kts | 191° |
| 2026-05-05 01:54 | 31.44871 | -90.25226 | 28991 ft | 514 kts | 191° |
| 2026-05-05 01:55 | 31.37712 | -90.25510 | 28994 ft | 515 kts | 191° |
| 2026-05-05 01:55 | 31.30538 | -90.25793 | 28989 ft | 515 kts | 190° |
| 2026-05-05 01:56 | 31.26973 | -90.25780 | 28528 ft | 523 kts | 186° |
| 2026-05-05 01:56 | 31.23312 | -90.25550 | 27451 ft | 527 kts | 183° |
| 2026-05-05 01:56 | 31.19647 | -90.25203 | 26165 ft | 527 kts | 182° |
| 2026-05-05 01:56 | 31.16006 | -90.24837 | 25014 ft | 523 kts | 181° |
| 2026-05-05 01:57 | 31.12418 | -90.24500 | 24449 ft | 507 kts | 182° |
| 2026-05-05 01:57 | 31.08964 | -90.24204 | 23864 ft | 491 kts | 182° |
| 2026-05-05 01:57 | 31.05581 | -90.23944 | 23023 ft | 482 kts | 182° |
| 2026-05-05 01:57 | 31.02253 | -90.23708 | 22008 ft | 476 kts | 182° |
| 2026-05-05 01:58 | 30.98965 | -90.23479 | 21031 ft | 471 kts | 182° |
| 2026-05-05 01:58 | 30.95706 | -90.23249 | 20116 ft | 466 kts | 182° |
| 2026-05-05 01:58 | 30.92520 | -90.23019 | 19269 ft | 460 kts | 181° |
| 2026-05-05 01:58 | 30.89308 | -90.22784 | 18437 ft | 454 kts | 181° |
| 2026-05-05 01:59 | 30.86256 | -90.22557 | 17421 ft | 439 kts | 181° |
| 2026-05-05 01:59 | 30.83242 | -90.22334 | 16263 ft | 428 kts | 181° |
| 2026-05-05 01:59 | 30.80295 | -90.22119 | 15180 ft | 419 kts | 181° |
| 2026-05-05 01:59 | 30.77410 | -90.21910 | 14146 ft | 410 kts | 180° |
| 2026-05-05 02:00 | 30.74589 | -90.21706 | 13075 ft | 402 kts | 180° |
| 2026-05-05 02:00 | 30.71805 | -90.21504 | 12021 ft | 403 kts | 180° |
| 2026-05-05 02:00 | 30.69958 | -90.21370 | 11815 ft | 393 kts | 180° |
| 2026-05-05 02:00 | 30.67288 | -90.21172 | 11558 ft | 376 kts | 180° |
| 2026-05-05 02:01 | 30.64740 | -90.20984 | 11398 ft | 359 kts | 180° |
| 2026-05-05 02:01 | 30.61524 | -90.20749 | 11188 ft | 340 kts | 181° |
| 2026-05-05 02:01 | 30.59213 | -90.20579 | 11039 ft | 326 kts | 181° |
| 2026-05-05 02:01 | 30.57698 | -90.20469 | 10880 ft | 320 kts | 181° |
| 2026-05-05 02:02 | 30.55508 | -90.20312 | 10476 ft | 318 kts | 181° |
| 2026-05-05 02:02 | 30.53322 | -90.20104 | 10127 ft | 316 kts | 173° |
| 2026-05-05 02:02 | 30.51239 | -90.19295 | 9845 ft | 314 kts | 160° |
| 2026-05-05 02:02 | 30.49253 | -90.18286 | 9452 ft | 307 kts | 159° |
| 2026-05-05 02:03 | 30.47312 | -90.17268 | 8822 ft | 305 kts | 159° |
| 2026-05-05 02:03 | 30.45382 | -90.16252 | 8262 ft | 305 kts | 159° |
| 2026-05-05 02:03 | 30.43457 | -90.15237 | 7947 ft | 300 kts | 159° |
| 2026-05-05 02:03 | 30.41572 | -90.14241 | 7646 ft | 296 kts | 158° |
| 2026-05-05 02:04 | 30.39697 | -90.13252 | 7272 ft | 295 kts | 158° |
| 2026-05-05 02:04 | 30.37836 | -90.12274 | 6945 ft | 292 kts | 158° |
| 2026-05-05 02:04 | 30.36011 | -90.11316 | 6594 ft | 289 kts | 159° |
| 2026-05-05 02:04 | 30.34182 | -90.10357 | 6228 ft | 288 kts | 158° |
| 2026-05-05 02:05 | 30.32367 | -90.09411 | 5888 ft | 284 kts | 158° |
| 2026-05-05 02:05 | 30.30629 | -90.08516 | 5590 ft | 280 kts | 158° |
| 2026-05-05 02:05 | 30.28887 | -90.07621 | 5485 ft | 267 kts | 158° |
| 2026-05-05 02:05 | 30.27250 | -90.06781 | 5371 ft | 246 kts | 159° |
| 2026-05-05 02:06 | 30.25747 | -90.06005 | 5081 ft | 231 kts | 158° |
| 2026-05-05 02:06 | 30.24294 | -90.05266 | 4609 ft | 224 kts | 159° |
| 2026-05-05 02:06 | 30.22880 | -90.04556 | 4070 ft | 219 kts | 159° |
| 2026-05-05 02:06 | 30.21491 | -90.03893 | 3561 ft | 212 kts | 162° |
| 2026-05-05 02:07 | 30.20091 | -90.03395 | 2995 ft | 210 kts | 171° |
| 2026-05-05 02:07 | 30.18684 | -90.03224 | 2646 ft | 197 kts | 177° |
| 2026-05-05 02:07 | 30.17347 | -90.03168 | 2385 ft | 188 kts | 179° |
| 2026-05-05 02:07 | 30.16085 | -90.03148 | 2147 ft | 179 kts | 180° |
| 2026-05-05 02:08 | 30.14859 | -90.03132 | 1902 ft | 172 kts | 180° |
| 2026-05-05 02:08 | 30.13690 | -90.03115 | 1688 ft | 162 kts | 180° |
| 2026-05-05 02:08 | 30.12616 | -90.03099 | 1474 ft | 147 kts | 180° |
| 2026-05-05 02:08 | 30.11643 | -90.03085 | 1316 ft | 130 kts | 181° |
| 2026-05-05 02:09 | 30.10764 | -90.03072 | 1123 ft | 122 kts | 179° |
| 2026-05-05 02:09 | 30.09912 | -90.03060 | 953 ft | 124 kts | 180° |
| 2026-05-05 02:09 | 30.09050 | -90.03047 | 799 ft | 126 kts | 180° |
| 2026-05-05 02:09 | 30.08178 | -90.03035 | 632 ft | 125 kts | 178° |
| 2026-05-05 02:10 | 30.07318 | -90.03022 | 466 ft | 127 kts | 179° |
| 2026-05-05 02:10 | 30.06430 | -90.03009 | 299 ft | 127 kts | 178° |
| 2026-05-05 02:10 | 30.05546 | -90.02998 | 105 ft | 127 kts | 179° |
| 2026-05-05 02:10 | 30.04680 | -90.02981 | 15 ft | 116 kts | 180° |
| 2026-05-05 02:11 | 30.04020 | -90.02973 | 15 ft | 73 kts | 179° |
| 2026-05-05 02:11 | 30.03665 | -90.02968 | 13 ft | 23 kts | 179° |
| 2026-05-05 02:11 | 30.03589 | -90.02956 | 14 ft | 8 kts | 136° |
| 2026-05-05 02:11 | 30.03583 | -90.02889 | 14 ft | 10 kts | 89° |
| 2026-05-05 02:12 | 30.03584 | -90.02797 | 14 ft | 12 kts | 89° |
| 2026-05-05 02:12 | 30.03669 | -90.02640 | 16 ft | 13 kts | 84° |
| 2026-05-05 02:12 | 30.03671 | -90.02522 | 14 ft | 16 kts | 90° |
| 2026-05-05 02:13 | 30.03665 | -90.02384 | 15 ft | 18 kts | 86° |
| 2026-05-05 02:13 | 30.03677 | -90.02234 | 14 ft | 19 kts | 84° |
| 2026-05-05 02:13 | 30.03643 | -90.02151 | 14 ft | 6 kts | 179° |
| 2026-05-05 02:13 | 30.03620 | -90.02158 | 14 ft | 0 kts | 198° |